sensor_id;sensor_type;location;lat;lon;timestamp;temperature;humidity
40848;DHT22;26570;50.962;5.340;2023-12-20T00:02:17;8.00;99.90
40848;DHT22;26570;50.962;5.340;2023-12-20T00:05:35;7.90;99.90
40848;DHT22;26570;50.962;5.340;2023-12-20T00:08:54;7.90;99.90
40848;DHT22;26570;50.962;5.340;2023-12-20T00:12:19;7.70;99.90
40848;DHT22;26570;50.962;5.340;2023-12-20T00:15:36;7.80;99.90
40848;DHT22;26570;50.962;5.340;2023-12-20T00:18:58;7.70;99.90
40848;DHT22;26570;50.962;5.340;2023-12-20T00:22:57;7.70;99.90
40848;DHT22;26570;50.962;5.340;2023-12-20T00:26:52;8.00;99.90
40848;DHT22;26570;50.962;5.340;2023-12-20T00:30:36;7.90;99.90
40848;DHT22;26570;50.962;5.340;2023-12-20T00:34:35;7.70;99.90
40848;DHT22;26570;50.962;5.340;2023-12-20T00:37:45;7.90;99.90
40848;DHT22;26570;50.962;5.340;2023-12-20T00:40:55;7.70;99.90
40848;DHT22;26570;50.962;5.340;2023-12-20T00:44:09;7.60;99.90
40848;DHT22;26570;50.962;5.340;2023-12-20T00:47:04;7.50;99.90
40848;DHT22;26570;50.962;5.340;2023-12-20T00:50:30;7.40;99.90
40848;DHT22;26570;50.962;5.340;2023-12-20T00:53:44;7.50;99.90
40848;DHT22;26570;50.962;5.340;2023-12-20T00:57:18;7.50;99.90
40848;DHT22;26570;50.962;5.340;2023-12-20T01:00:45;7.50;99.90
40848;DHT22;26570;50.962;5.340;2023-12-20T01:03:55;7.30;99.90
40848;DHT22;26570;50.962;5.340;2023-12-20T01:07:30;7.30;99.90
40848;DHT22;26570;50.962;5.340;2023-12-20T01:10:42;7.40;99.90
40848;DHT22;26570;50.962;5.340;2023-12-20T01:14:20;7.30;99.90
40848;DHT22;26570;50.962;5.340;2023-12-20T01:17:19;7.30;99.90
40848;DHT22;26570;50.962;5.340;2023-12-20T01:20:31;7.10;99.90
40848;DHT22;26570;50.962;5.340;2023-12-20T01:23:27;7.30;99.90
40848;DHT22;26570;50.962;5.340;2023-12-20T01:26:47;7.20;99.90
40848;DHT22;26570;50.962;5.340;2023-12-20T01:30:37;7.30;99.90
40848;DHT22;26570;50.962;5.340;2023-12-20T01:34:12;7.20;99.90
40848;DHT22;26570;50.962;5.340;2023-12-20T01:42:31;7.00;99.90
40848;DHT22;26570;50.962;5.340;2023-12-20T01:46:02;6.80;99.90
40848;DHT22;26570;50.962;5.340;2023-12-20T01:52:28;6.70;99.90
40848;DHT22;26570;50.962;5.340;2023-12-20T01:55:20;6.80;99.90
40848;DHT22;26570;50.962;5.340;2023-12-20T01:58:46;6.80;99.90
40848;DHT22;26570;50.962;5.340;2023-12-20T02:01:55;6.90;99.90
40848;DHT22;26570;50.962;5.340;2023-12-20T02:05:01;6.90;99.90
40848;DHT22;26570;50.962;5.340;2023-12-20T02:08:22;6.60;99.90
40848;DHT22;26570;50.962;5.340;2023-12-20T02:11:20;6.70;99.90
40848;DHT22;26570;50.962;5.340;2023-12-20T02:14:15;6.80;99.90
40848;DHT22;26570;50.962;5.340;2023-12-20T02:17:16;6.70;99.90
40848;DHT22;26570;50.962;5.340;2023-12-20T02:20:12;6.50;99.90
40848;DHT22;26570;50.962;5.340;2023-12-20T02:23:07;6.50;99.90
40848;DHT22;26570;50.962;5.340;2023-12-20T02:26:02;6.40;99.90
40848;DHT22;26570;50.962;5.340;2023-12-20T02:29:37;6.40;99.90
40848;DHT22;26570;50.962;5.340;2023-12-20T02:32:37;6.40;99.90
40848;DHT22;26570;50.962;5.340;2023-12-20T02:36:16;6.40;99.90
40848;DHT22;26570;50.962;5.340;2023-12-20T02:39:13;6.50;99.90
40848;DHT22;26570;50.962;5.340;2023-12-20T02:42:51;6.30;99.90
40848;DHT22;26570;50.962;5.340;2023-12-20T02:46:40;6.40;99.90
40848;DHT22;26570;50.962;5.340;2023-12-20T02:49:51;6.40;99.90
40848;DHT22;26570;50.962;5.340;2023-12-20T02:52:55;6.30;99.90
40848;DHT22;26570;50.962;5.340;2023-12-20T02:56:01;6.30;99.90
40848;DHT22;26570;50.962;5.340;2023-12-20T02:58:55;6.40;99.90
40848;DHT22;26570;50.962;5.340;2023-12-20T03:05:00;6.30;99.90
40848;DHT22;26570;50.962;5.340;2023-12-20T03:08:20;6.30;99.90
40848;DHT22;26570;50.962;5.340;2023-12-20T03:11:11;6.40;99.90
40848;DHT22;26570;50.962;5.340;2023-12-20T03:14:25;6.40;99.90
40848;DHT22;26570;50.962;5.340;2023-12-20T03:17:15;6.50;99.90
40848;DHT22;26570;50.962;5.340;2023-12-20T03:20:22;6.40;99.90
40848;DHT22;26570;50.962;5.340;2023-12-20T03:23:19;6.40;99.90
40848;DHT22;26570;50.962;5.340;2023-12-20T03:26:26;6.50;99.90
40848;DHT22;26570;50.962;5.340;2023-12-20T03:29:52;6.60;99.90
40848;DHT22;26570;50.962;5.340;2023-12-20T03:33:40;6.60;99.90
40848;DHT22;26570;50.962;5.340;2023-12-20T03:37:09;6.60;99.90
40848;DHT22;26570;50.962;5.340;2023-12-20T03:39:56;6.70;99.90
40848;DHT22;26570;50.962;5.340;2023-12-20T03:46:13;6.60;99.90
40848;DHT22;26570;50.962;5.340;2023-12-20T03:49:39;6.70;99.90
40848;DHT22;26570;50.962;5.340;2023-12-20T03:52:37;6.70;99.90
40848;DHT22;26570;50.962;5.340;2023-12-20T03:55:32;6.90;99.90
40848;DHT22;26570;50.962;5.340;2023-12-20T03:58:41;7.00;99.90
40848;DHT22;26570;50.962;5.340;2023-12-20T04:02:13;6.80;99.90
40848;DHT22;26570;50.962;5.340;2023-12-20T04:04:58;6.90;99.90
40848;DHT22;26570;50.962;5.340;2023-12-20T04:08:16;6.90;99.90
40848;DHT22;26570;50.962;5.340;2023-12-20T04:11:11;6.70;99.90
40848;DHT22;26570;50.962;5.340;2023-12-20T04:13:59;6.70;99.90
40848;DHT22;26570;50.962;5.340;2023-12-20T04:16:58;6.20;99.90
40848;DHT22;26570;50.962;5.340;2023-12-20T04:20:03;6.70;99.90
40848;DHT22;26570;50.962;5.340;2023-12-20T04:23:36;6.70;99.90
40848;DHT22;26570;50.962;5.340;2023-12-20T04:26:35;6.60;99.90
40848;DHT22;26570;50.962;5.340;2023-12-20T04:30:09;6.70;99.90
40848;DHT22;26570;50.962;5.340;2023-12-20T04:33:00;6.80;99.90
40848;DHT22;26570;50.962;5.340;2023-12-20T04:36:22;6.90;99.90
40848;DHT22;26570;50.962;5.340;2023-12-20T04:39:31;6.90;99.90
40848;DHT22;26570;50.962;5.340;2023-12-20T04:42:24;6.90;99.90
40848;DHT22;26570;50.962;5.340;2023-12-20T04:45:21;7.00;99.90
40848;DHT22;26570;50.962;5.340;2023-12-20T04:48:25;7.00;99.90
40848;DHT22;26570;50.962;5.340;2023-12-20T04:51:47;7.00;99.90
40848;DHT22;26570;50.962;5.340;2023-12-20T04:55:08;7.00;99.90
40848;DHT22;26570;50.962;5.340;2023-12-20T04:58:23;7.00;99.90
40848;DHT22;26570;50.962;5.340;2023-12-20T05:01:17;7.20;99.90
40848;DHT22;26570;50.962;5.340;2023-12-20T05:04:08;7.10;99.90
40848;DHT22;26570;50.962;5.340;2023-12-20T05:07:45;7.10;99.90
40848;DHT22;26570;50.962;5.340;2023-12-20T05:13:40;6.90;99.90
40848;DHT22;26570;50.962;5.340;2023-12-20T05:17:12;7.10;99.90
40848;DHT22;26570;50.962;5.340;2023-12-20T05:20:10;6.90;99.90
40848;DHT22;26570;50.962;5.340;2023-12-20T05:23:20;7.10;99.90
40848;DHT22;26570;50.962;5.340;2023-12-20T05:26:08;7.10;99.90
40848;DHT22;26570;50.962;5.340;2023-12-20T05:29:17;7.00;99.90
40848;DHT22;26570;50.962;5.340;2023-12-20T05:32:10;6.90;99.90
40848;DHT22;26570;50.962;5.340;2023-12-20T05:35:50;6.90;99.90
40848;DHT22;26570;50.962;5.340;2023-12-20T05:38:49;6.80;99.90
40848;DHT22;26570;50.962;5.340;2023-12-20T05:41:59;6.90;99.90
40848;DHT22;26570;50.962;5.340;2023-12-20T05:45:14;7.00;99.90
40848;DHT22;26570;50.962;5.340;2023-12-20T05:48:16;6.80;99.90
40848;DHT22;26570;50.962;5.340;2023-12-20T05:51:53;6.70;99.90
40848;DHT22;26570;50.962;5.340;2023-12-20T05:55:06;6.70;99.90
40848;DHT22;26570;50.962;5.340;2023-12-20T05:58:10;6.50;99.90
40848;DHT22;26570;50.962;5.340;2023-12-20T06:01:44;6.50;99.90
40848;DHT22;26570;50.962;5.340;2023-12-20T06:04:37;6.40;99.90
40848;DHT22;26570;50.962;5.340;2023-12-20T06:07:32;6.40;99.90
40848;DHT22;26570;50.962;5.340;2023-12-20T06:10:52;6.30;99.90
40848;DHT22;26570;50.962;5.340;2023-12-20T06:13:46;6.20;99.90
40848;DHT22;26570;50.962;5.340;2023-12-20T06:17:20;6.20;99.90
40848;DHT22;26570;50.962;5.340;2023-12-20T06:20:11;6.20;99.90
40848;DHT22;26570;50.962;5.340;2023-12-20T06:23:44;6.20;99.90
40848;DHT22;26570;50.962;5.340;2023-12-20T06:27:30;6.10;99.90
40848;DHT22;26570;50.962;5.340;2023-12-20T06:30:48;6.20;99.90
40848;DHT22;26570;50.962;5.340;2023-12-20T06:33:50;6.10;99.90
40848;DHT22;26570;50.962;5.340;2023-12-20T06:37:04;6.20;99.90
40848;DHT22;26570;50.962;5.340;2023-12-20T06:40:15;6.10;99.90
40848;DHT22;26570;50.962;5.340;2023-12-20T06:43:06;6.40;99.90
40848;DHT22;26570;50.962;5.340;2023-12-20T06:45:59;6.30;99.90
40848;DHT22;26570;50.962;5.340;2023-12-20T06:48:45;6.40;99.90
40848;DHT22;26570;50.962;5.340;2023-12-20T06:51:35;6.60;99.90
40848;DHT22;26570;50.962;5.340;2023-12-20T06:54:49;6.70;99.90
40848;DHT22;26570;50.962;5.340;2023-12-20T07:05:30;6.40;99.90
40848;DHT22;26570;50.962;5.340;2023-12-20T07:08:23;6.50;99.90
40848;DHT22;26570;50.962;5.340;2023-12-20T07:11:33;6.40;99.90
40848;DHT22;26570;50.962;5.340;2023-12-20T07:14:50;6.50;99.90
40848;DHT22;26570;50.962;5.340;2023-12-20T07:17:59;6.30;99.90
40848;DHT22;26570;50.962;5.340;2023-12-20T07:20:52;6.30;99.90
40848;DHT22;26570;50.962;5.340;2023-12-20T07:23:38;6.10;99.90
40848;DHT22;26570;50.962;5.340;2023-12-20T07:26:26;6.10;99.90
40848;DHT22;26570;50.962;5.340;2023-12-20T07:29:16;6.10;99.90
40848;DHT22;26570;50.962;5.340;2023-12-20T07:32:01;6.10;99.90
40848;DHT22;26570;50.962;5.340;2023-12-20T07:34:49;6.20;99.90
40848;DHT22;26570;50.962;5.340;2023-12-20T07:37:34;6.20;99.90
40848;DHT22;26570;50.962;5.340;2023-12-20T07:40:23;6.20;99.90
40848;DHT22;26570;50.962;5.340;2023-12-20T07:43:08;6.20;99.90
40848;DHT22;26570;50.962;5.340;2023-12-20T07:45:54;6.10;99.90
40848;DHT22;26570;50.962;5.340;2023-12-20T07:48:39;6.10;99.90
40848;DHT22;26570;50.962;5.340;2023-12-20T07:51:47;6.00;99.90
40848;DHT22;26570;50.962;5.340;2023-12-20T07:54:32;6.20;99.90
40848;DHT22;26570;50.962;5.340;2023-12-20T07:57:17;6.10;99.90
40848;DHT22;26570;50.962;5.340;2023-12-20T08:00:06;6.20;99.90
40848;DHT22;26570;50.962;5.340;2023-12-20T08:03:13;6.10;99.90
40848;DHT22;26570;50.962;5.340;2023-12-20T08:06:00;6.30;99.90
40848;DHT22;26570;50.962;5.340;2023-12-20T08:08:48;6.20;99.90
40848;DHT22;26570;50.962;5.340;2023-12-20T08:11:41;6.20;99.90
40848;DHT22;26570;50.962;5.340;2023-12-20T08:14:29;6.30;99.90
40848;DHT22;26570;50.962;5.340;2023-12-20T08:17:36;6.30;99.90
40848;DHT22;26570;50.962;5.340;2023-12-20T08:20:21;6.40;99.90
40848;DHT22;26570;50.962;5.340;2023-12-20T08:23:06;6.20;99.90
40848;DHT22;26570;50.962;5.340;2023-12-20T08:25:51;6.20;99.90
40848;DHT22;26570;50.962;5.340;2023-12-20T08:28:38;6.30;99.90
40848;DHT22;26570;50.962;5.340;2023-12-20T08:31:23;6.50;99.90
40848;DHT22;26570;50.962;5.340;2023-12-20T08:34:09;6.50;99.90
40848;DHT22;26570;50.962;5.340;2023-12-20T08:36:56;6.60;99.90
40848;DHT22;26570;50.962;5.340;2023-12-20T08:39:41;6.60;99.90
40848;DHT22;26570;50.962;5.340;2023-12-20T08:42:48;6.50;99.90
40848;DHT22;26570;50.962;5.340;2023-12-20T08:45:33;6.50;99.90
40848;DHT22;26570;50.962;5.340;2023-12-20T08:48:18;6.60;99.90
40848;DHT22;26570;50.962;5.340;2023-12-20T08:51:04;6.50;99.90
40848;DHT22;26570;50.962;5.340;2023-12-20T08:53:51;6.60;99.90
40848;DHT22;26570;50.962;5.340;2023-12-20T08:56:37;6.80;99.90
40848;DHT22;26570;50.962;5.340;2023-12-20T08:59:22;6.80;99.90
40848;DHT22;26570;50.962;5.340;2023-12-20T09:02:07;6.80;99.90
40848;DHT22;26570;50.962;5.340;2023-12-20T09:04:52;6.80;99.90
40848;DHT22;26570;50.962;5.340;2023-12-20T09:07:37;6.80;99.90
40848;DHT22;26570;50.962;5.340;2023-12-20T09:10:22;6.80;99.90
40848;DHT22;26570;50.962;5.340;2023-12-20T09:13:06;6.70;99.90
40848;DHT22;26570;50.962;5.340;2023-12-20T09:15:51;6.70;99.90
40848;DHT22;26570;50.962;5.340;2023-12-20T09:18:59;6.80;99.90
40848;DHT22;26570;50.962;5.340;2023-12-20T09:21:44;6.90;99.90
40848;DHT22;26570;50.962;5.340;2023-12-20T09:24:30;6.90;99.90
40848;DHT22;26570;50.962;5.340;2023-12-20T09:27:15;6.90;99.90
40848;DHT22;26570;50.962;5.340;2023-12-20T09:30:00;6.90;99.90
40848;DHT22;26570;50.962;5.340;2023-12-20T09:32:45;7.00;99.90
40848;DHT22;26570;50.962;5.340;2023-12-20T09:35:30;7.20;99.90
40848;DHT22;26570;50.962;5.340;2023-12-20T09:38:15;7.10;99.90
40848;DHT22;26570;50.962;5.340;2023-12-20T09:41:02;6.90;99.90
40848;DHT22;26570;50.962;5.340;2023-12-20T09:43:49;7.00;99.90
40848;DHT22;26570;50.962;5.340;2023-12-20T09:46:58;7.10;99.90
40848;DHT22;26570;50.962;5.340;2023-12-20T09:49:44;7.30;99.90
40848;DHT22;26570;50.962;5.340;2023-12-20T09:52:29;7.50;99.90
40848;DHT22;26570;50.962;5.340;2023-12-20T09:55:17;7.50;99.90
40848;DHT22;26570;50.962;5.340;2023-12-20T09:58:04;7.60;99.90
40848;DHT22;26570;50.962;5.340;2023-12-20T10:00:49;7.50;99.90
40848;DHT22;26570;50.962;5.340;2023-12-20T10:03:58;7.50;99.90
40848;DHT22;26570;50.962;5.340;2023-12-20T10:07:09;7.70;99.90
40848;DHT22;26570;50.962;5.340;2023-12-20T10:09:55;7.80;99.90
40848;DHT22;26570;50.962;5.340;2023-12-20T10:12:41;7.80;99.90
40848;DHT22;26570;50.962;5.340;2023-12-20T10:16:07;8.00;99.90
40848;DHT22;26570;50.962;5.340;2023-12-20T10:18:56;8.10;99.90
40848;DHT22;26570;50.962;5.340;2023-12-20T10:21:41;8.10;99.90
40848;DHT22;26570;50.962;5.340;2023-12-20T10:24:28;8.20;99.90
40848;DHT22;26570;50.962;5.340;2023-12-20T10:27:14;8.20;99.90
40848;DHT22;26570;50.962;5.340;2023-12-20T10:29:59;8.10;99.90
40848;DHT22;26570;50.962;5.340;2023-12-20T10:32:44;8.20;99.90
40848;DHT22;26570;50.962;5.340;2023-12-20T10:35:52;8.10;99.90
40848;DHT22;26570;50.962;5.340;2023-12-20T10:38:42;8.20;99.90
40848;DHT22;26570;50.962;5.340;2023-12-20T10:41:32;8.20;99.90
40848;DHT22;26570;50.962;5.340;2023-12-20T10:44:17;8.40;99.90
40848;DHT22;26570;50.962;5.340;2023-12-20T10:47:04;8.50;99.90
40848;DHT22;26570;50.962;5.340;2023-12-20T10:49:50;8.50;99.90
40848;DHT22;26570;50.962;5.340;2023-12-20T10:52:38;8.40;99.90
40848;DHT22;26570;50.962;5.340;2023-12-20T10:55:46;8.30;99.90
40848;DHT22;26570;50.962;5.340;2023-12-20T10:58:33;8.50;99.90
40848;DHT22;26570;50.962;5.340;2023-12-20T11:01:20;8.40;99.90
40848;DHT22;26570;50.962;5.340;2023-12-20T11:04:08;8.50;99.90
40848;DHT22;26570;50.962;5.340;2023-12-20T11:06:59;8.50;99.90
40848;DHT22;26570;50.962;5.340;2023-12-20T11:10:00;8.70;99.90
40848;DHT22;26570;50.962;5.340;2023-12-20T11:12:51;8.60;99.90
40848;DHT22;26570;50.962;5.340;2023-12-20T11:15:37;8.70;99.90
40848;DHT22;26570;50.962;5.340;2023-12-20T11:18:29;8.70;99.90
40848;DHT22;26570;50.962;5.340;2023-12-20T11:21:16;8.70;99.90
40848;DHT22;26570;50.962;5.340;2023-12-20T11:24:04;8.60;99.90
40848;DHT22;26570;50.962;5.340;2023-12-20T11:26:59;8.70;99.90
40848;DHT22;26570;50.962;5.340;2023-12-20T11:29:54;8.90;99.90
40848;DHT22;26570;50.962;5.340;2023-12-20T11:32:46;8.70;99.90
40848;DHT22;26570;50.962;5.340;2023-12-20T11:35:56;8.30;99.90
40848;DHT22;26570;50.962;5.340;2023-12-20T11:38:59;8.70;99.90
40848;DHT22;26570;50.962;5.340;2023-12-20T11:42:07;8.60;99.90
40848;DHT22;26570;50.962;5.340;2023-12-20T11:44:53;8.60;99.90
40848;DHT22;26570;50.962;5.340;2023-12-20T11:47:38;8.50;99.90
40848;DHT22;26570;50.962;5.340;2023-12-20T11:50:25;8.60;99.90
40848;DHT22;26570;50.962;5.340;2023-12-20T11:53:10;8.60;99.90
40848;DHT22;26570;50.962;5.340;2023-12-20T11:55:56;8.70;99.90
40848;DHT22;26570;50.962;5.340;2023-12-20T11:58:42;8.70;99.90
40848;DHT22;26570;50.962;5.340;2023-12-20T12:01:27;8.80;99.90
40848;DHT22;26570;50.962;5.340;2023-12-20T12:04:12;8.50;99.90
40848;DHT22;26570;50.962;5.340;2023-12-20T12:07:22;8.30;99.90
40848;DHT22;26570;50.962;5.340;2023-12-20T12:10:07;8.30;99.90
40848;DHT22;26570;50.962;5.340;2023-12-20T12:12:53;8.40;99.90
40848;DHT22;26570;50.962;5.340;2023-12-20T12:16:00;8.50;99.90
40848;DHT22;26570;50.962;5.340;2023-12-20T12:18:45;8.50;99.90
40848;DHT22;26570;50.962;5.340;2023-12-20T12:21:30;8.60;99.90
40848;DHT22;26570;50.962;5.340;2023-12-20T12:24:39;8.70;99.90
40848;DHT22;26570;50.962;5.340;2023-12-20T12:27:24;8.70;99.90
40848;DHT22;26570;50.962;5.340;2023-12-20T12:30:09;8.70;99.90
40848;DHT22;26570;50.962;5.340;2023-12-20T12:32:56;8.90;99.90
40848;DHT22;26570;50.962;5.340;2023-12-20T12:35:42;8.70;99.90
40848;DHT22;26570;50.962;5.340;2023-12-20T12:38:27;8.80;99.90
40848;DHT22;26570;50.962;5.340;2023-12-20T12:41:13;8.60;99.90
40848;DHT22;26570;50.962;5.340;2023-12-20T12:43:59;8.60;99.90
40848;DHT22;26570;50.962;5.340;2023-12-20T12:46:48;8.80;99.90
40848;DHT22;26570;50.962;5.340;2023-12-20T12:49:35;8.80;99.90
40848;DHT22;26570;50.962;5.340;2023-12-20T12:52:47;8.80;99.90
40848;DHT22;26570;50.962;5.340;2023-12-20T12:55:34;8.60;99.90
40848;DHT22;26570;50.962;5.340;2023-12-20T12:58:21;8.70;99.90
40848;DHT22;26570;50.962;5.340;2023-12-20T13:01:06;8.60;99.90
40848;DHT22;26570;50.962;5.340;2023-12-20T13:03:51;8.50;99.90
40848;DHT22;26570;50.962;5.340;2023-12-20T13:06:39;8.40;99.90
40848;DHT22;26570;50.962;5.340;2023-12-20T13:09:26;8.40;99.90
40848;DHT22;26570;50.962;5.340;2023-12-20T13:14:56;8.60;99.90
40848;DHT22;26570;50.962;5.340;2023-12-20T13:17:41;8.60;99.90
40848;DHT22;26570;50.962;5.340;2023-12-20T13:20:26;8.70;99.90
40848;DHT22;26570;50.962;5.340;2023-12-20T13:23:11;8.70;99.90
40848;DHT22;26570;50.962;5.340;2023-12-20T13:25:56;8.70;99.90
40848;DHT22;26570;50.962;5.340;2023-12-20T13:28:44;8.70;99.90
40848;DHT22;26570;50.962;5.340;2023-12-20T13:31:29;8.80;99.90
40848;DHT22;26570;50.962;5.340;2023-12-20T13:34:14;8.80;99.90
40848;DHT22;26570;50.962;5.340;2023-12-20T13:37:02;8.80;99.90
40848;DHT22;26570;50.962;5.340;2023-12-20T13:39:49;8.90;99.90
40848;DHT22;26570;50.962;5.340;2023-12-20T13:42:35;9.00;99.90
40848;DHT22;26570;50.962;5.340;2023-12-20T13:45:20;8.90;99.90
40848;DHT22;26570;50.962;5.340;2023-12-20T13:48:27;9.00;99.90
40848;DHT22;26570;50.962;5.340;2023-12-20T13:51:13;9.00;99.90
40848;DHT22;26570;50.962;5.340;2023-12-20T13:53:58;8.90;99.90
40848;DHT22;26570;50.962;5.340;2023-12-20T13:56:46;8.90;99.90
40848;DHT22;26570;50.962;5.340;2023-12-20T13:59:37;9.00;99.90
40848;DHT22;26570;50.962;5.340;2023-12-20T14:02:25;8.90;99.90
40848;DHT22;26570;50.962;5.340;2023-12-20T14:05:14;8.90;99.90
40848;DHT22;26570;50.962;5.340;2023-12-20T14:08:35;8.90;99.90
40848;DHT22;26570;50.962;5.340;2023-12-20T14:11:43;9.00;99.90
40848;DHT22;26570;50.962;5.340;2023-12-20T14:14:48;8.90;99.90
40848;DHT22;26570;50.962;5.340;2023-12-20T14:17:33;8.90;99.90
40848;DHT22;26570;50.962;5.340;2023-12-20T14:20:18;8.90;99.90
40848;DHT22;26570;50.962;5.340;2023-12-20T14:23:26;8.90;99.90
40848;DHT22;26570;50.962;5.340;2023-12-20T14:26:33;9.10;99.90
40848;DHT22;26570;50.962;5.340;2023-12-20T14:29:19;9.10;99.90
40848;DHT22;26570;50.962;5.340;2023-12-20T14:32:04;9.00;99.90
40848;DHT22;26570;50.962;5.340;2023-12-20T14:34:52;9.10;99.90
40848;DHT22;26570;50.962;5.340;2023-12-20T14:37:39;9.10;99.90
40848;DHT22;26570;50.962;5.340;2023-12-20T14:40:25;9.00;99.90
40848;DHT22;26570;50.962;5.340;2023-12-20T14:43:12;9.00;99.90
40848;DHT22;26570;50.962;5.340;2023-12-20T14:45:58;9.00;99.90
40848;DHT22;26570;50.962;5.340;2023-12-20T14:48:43;8.80;99.90
40848;DHT22;26570;50.962;5.340;2023-12-20T14:51:28;8.80;99.90
40848;DHT22;26570;50.962;5.340;2023-12-20T14:54:16;8.80;99.90
40848;DHT22;26570;50.962;5.340;2023-12-20T14:57:03;8.90;99.90
40848;DHT22;26570;50.962;5.340;2023-12-20T14:59:51;9.10;99.90
40848;DHT22;26570;50.962;5.340;2023-12-20T15:02:37;9.10;99.90
40848;DHT22;26570;50.962;5.340;2023-12-20T15:05:22;8.90;99.90
40848;DHT22;26570;50.962;5.340;2023-12-20T15:08:07;8.80;99.90
40848;DHT22;26570;50.962;5.340;2023-12-20T15:10:55;9.00;99.90
40848;DHT22;26570;50.962;5.340;2023-12-20T15:13:43;9.00;99.90
40848;DHT22;26570;50.962;5.340;2023-12-20T15:16:28;9.00;99.90
40848;DHT22;26570;50.962;5.340;2023-12-20T15:19:35;9.10;99.90
40848;DHT22;26570;50.962;5.340;2023-12-20T15:22:21;9.20;99.90
40848;DHT22;26570;50.962;5.340;2023-12-20T15:25:08;9.20;99.90
40848;DHT22;26570;50.962;5.340;2023-12-20T15:28:00;9.00;99.90
40848;DHT22;26570;50.962;5.340;2023-12-20T15:30:48;9.10;99.90
40848;DHT22;26570;50.962;5.340;2023-12-20T15:33:33;9.10;99.90
40848;DHT22;26570;50.962;5.340;2023-12-20T15:36:19;9.10;99.90
40848;DHT22;26570;50.962;5.340;2023-12-20T15:39:07;9.10;99.90
40848;DHT22;26570;50.962;5.340;2023-12-20T15:42:03;9.20;99.90
40848;DHT22;26570;50.962;5.340;2023-12-20T15:44:51;9.20;99.90
40848;DHT22;26570;50.962;5.340;2023-12-20T15:47:37;9.20;99.90
40848;DHT22;26570;50.962;5.340;2023-12-20T15:50:44;9.20;99.90
40848;DHT22;26570;50.962;5.340;2023-12-20T15:53:32;9.10;99.90
40848;DHT22;26570;50.962;5.340;2023-12-20T15:56:17;9.20;99.90
40848;DHT22;26570;50.962;5.340;2023-12-20T15:59:03;9.20;99.90
40848;DHT22;26570;50.962;5.340;2023-12-20T16:01:48;9.30;99.90
40848;DHT22;26570;50.962;5.340;2023-12-20T16:04:34;9.40;99.90
40848;DHT22;26570;50.962;5.340;2023-12-20T16:07:25;9.20;99.90
40848;DHT22;26570;50.962;5.340;2023-12-20T16:10:13;9.20;99.90
40848;DHT22;26570;50.962;5.340;2023-12-20T16:13:01;9.20;99.90
40848;DHT22;26570;50.962;5.340;2023-12-20T16:15:47;9.30;99.90
40848;DHT22;26570;50.962;5.340;2023-12-20T16:18:32;9.20;99.90
40848;DHT22;26570;50.962;5.340;2023-12-20T16:21:17;9.10;99.90
40848;DHT22;26570;50.962;5.340;2023-12-20T16:24:03;9.20;99.90
40848;DHT22;26570;50.962;5.340;2023-12-20T16:26:48;9.30;99.90
40848;DHT22;26570;50.962;5.340;2023-12-20T16:29:51;9.30;99.90
40848;DHT22;26570;50.962;5.340;2023-12-20T16:32:37;9.30;99.90
40848;DHT22;26570;50.962;5.340;2023-12-20T16:35:59;9.30;99.90
40848;DHT22;26570;50.962;5.340;2023-12-20T16:38:47;9.10;99.90
40848;DHT22;26570;50.962;5.340;2023-12-20T16:45:54;8.90;99.90
40848;DHT22;26570;50.962;5.340;2023-12-20T16:49:01;9.10;99.90
40848;DHT22;26570;50.962;5.340;2023-12-20T16:51:56;9.10;99.90
40848;DHT22;26570;50.962;5.340;2023-12-20T16:54:46;9.20;99.90
40848;DHT22;26570;50.962;5.340;2023-12-20T16:57:34;9.20;99.90
40848;DHT22;26570;50.962;5.340;2023-12-20T17:00:20;9.20;99.90
40848;DHT22;26570;50.962;5.340;2023-12-20T17:03:14;9.20;99.90
40848;DHT22;26570;50.962;5.340;2023-12-20T17:09:35;9.30;99.90
40848;DHT22;26570;50.962;5.340;2023-12-20T17:12:43;9.30;99.90
40848;DHT22;26570;50.962;5.340;2023-12-20T17:23:37;9.20;99.90
40848;DHT22;26570;50.962;5.340;2023-12-20T17:26:21;9.30;99.90
40848;DHT22;26570;50.962;5.340;2023-12-20T17:29:12;9.40;99.90
40848;DHT22;26570;50.962;5.340;2023-12-20T17:32:04;9.40;99.90
40848;DHT22;26570;50.962;5.340;2023-12-20T17:34:49;9.30;99.90
40848;DHT22;26570;50.962;5.340;2023-12-20T17:37:38;9.30;99.90
40848;DHT22;26570;50.962;5.340;2023-12-20T17:40:44;9.30;99.90
40848;DHT22;26570;50.962;5.340;2023-12-20T17:43:33;9.40;99.90
40848;DHT22;26570;50.962;5.340;2023-12-20T17:46:29;9.40;99.90
40848;DHT22;26570;50.962;5.340;2023-12-20T17:53:52;9.40;99.90
40848;DHT22;26570;50.962;5.340;2023-12-20T17:56:37;9.30;99.90
40848;DHT22;26570;50.962;5.340;2023-12-20T17:59:22;9.40;99.90
40848;DHT22;26570;50.962;5.340;2023-12-20T18:02:08;9.30;99.90
40848;DHT22;26570;50.962;5.340;2023-12-20T18:04:59;9.30;99.90
40848;DHT22;26570;50.962;5.340;2023-12-20T18:07:47;9.30;99.90
40848;DHT22;26570;50.962;5.340;2023-12-20T18:11:00;9.40;99.90
40848;DHT22;26570;50.962;5.340;2023-12-20T18:14:06;9.40;99.90
40848;DHT22;26570;50.962;5.340;2023-12-20T18:17:42;9.40;99.90
40848;DHT22;26570;50.962;5.340;2023-12-20T18:20:30;9.70;99.90
40848;DHT22;26570;50.962;5.340;2023-12-20T18:23:26;9.30;99.90
40848;DHT22;26570;50.962;5.340;2023-12-20T18:26:29;9.30;99.90
40848;DHT22;26570;50.962;5.340;2023-12-20T18:29:42;9.30;99.90
40848;DHT22;26570;50.962;5.340;2023-12-20T18:32:37;9.30;99.90
40848;DHT22;26570;50.962;5.340;2023-12-20T18:35:32;9.40;99.90
40848;DHT22;26570;50.962;5.340;2023-12-20T18:38:19;9.50;99.90
40848;DHT22;26570;50.962;5.340;2023-12-20T18:41:32;9.40;99.90
40848;DHT22;26570;50.962;5.340;2023-12-20T18:44:37;9.50;99.90
40848;DHT22;26570;50.962;5.340;2023-12-20T18:47:56;9.60;99.90
40848;DHT22;26570;50.962;5.340;2023-12-20T18:51:36;9.30;99.90
40848;DHT22;26570;50.962;5.340;2023-12-20T19:04:57;9.40;99.90
40848;DHT22;26570;50.962;5.340;2023-12-20T19:07:49;9.50;99.90
40848;DHT22;26570;50.962;5.340;2023-12-20T19:11:19;9.50;99.90
40848;DHT22;26570;50.962;5.340;2023-12-20T19:14:10;9.40;99.90
40848;DHT22;26570;50.962;5.340;2023-12-20T19:17:21;9.40;99.90
40848;DHT22;26570;50.962;5.340;2023-12-20T19:20:23;9.60;99.90
40848;DHT22;26570;50.962;5.340;2023-12-20T19:23:08;9.70;99.90
40848;DHT22;26570;50.962;5.340;2023-12-20T19:26:01;9.50;99.90
40848;DHT22;26570;50.962;5.340;2023-12-20T19:28:51;9.70;99.90
40848;DHT22;26570;50.962;5.340;2023-12-20T19:31:41;9.60;99.90
40848;DHT22;26570;50.962;5.340;2023-12-20T19:34:29;9.50;99.90
40848;DHT22;26570;50.962;5.340;2023-12-20T19:37:36;9.60;99.90
40848;DHT22;26570;50.962;5.340;2023-12-20T19:40:39;9.70;99.90
40848;DHT22;26570;50.962;5.340;2023-12-20T19:43:27;9.80;99.90
40848;DHT22;26570;50.962;5.340;2023-12-20T19:46:15;9.70;99.90
40848;DHT22;26570;50.962;5.340;2023-12-20T19:49:00;9.70;99.90
40848;DHT22;26570;50.962;5.340;2023-12-20T19:51:49;9.70;99.90
40848;DHT22;26570;50.962;5.340;2023-12-20T19:54:35;9.80;99.90
40848;DHT22;26570;50.962;5.340;2023-12-20T19:57:21;9.80;99.90
40848;DHT22;26570;50.962;5.340;2023-12-20T20:00:35;9.80;99.90
40848;DHT22;26570;50.962;5.340;2023-12-20T20:03:32;9.80;99.90